Time;durP1;ratioP1;P1;durP2;ratioP2;P2;SDS_P1;SDS_P2;PMS_P1;PMS_P2;Temp;Humidity;BMP_temperature;BMP_pressure;BME280_temperature;BME280_humidity;BME280_pressure;Samples;Min_cycle;Max_cycle;Signal;HPM_P1;HPM_P2
2022/11/25 00:00:27;;;;;;;1.70;1.60;;;;;;;5.41;94.04;62554.75;5004344;28;20537;-75
2022/11/25 00:02:54;;;;;;;2.72;1.98;;;;;;;5.40;93.76;62556.25;5007350;28;20635;-76
2022/11/25 00:05:21;;;;;;;1.58;1.55;;;;;;;5.42;93.04;62555.78;5006392;28;20247;-75
2022/11/25 00:07:48;;;;;;;3.75;2.50;;;;;;;5.36;92.63;62550.13;5007191;28;20427;-74
2022/11/25 00:10:14;;;;;;;2.13;2.03;;;;;;;5.40;91.21;62551.22;5005610;28;20230;-75
2022/11/25 00:12:41;;;;;;;2.05;1.95;;;;;;;5.43;91.12;62557.34;5007600;28;20234;-75
2022/11/25 00:15:09;;;;;;;1.67;1.65;;;;;;;5.32;91.14;62548.53;5006626;28;20219;-74
2022/11/25 00:17:37;;;;;;;2.08;1.88;;;;;;;5.43;91.54;62554.28;5006085;28;20219;-76
2022/11/25 00:20:05;;;;;;;3.75;1.90;;;;;;;5.39;91.74;62553.22;5004850;28;20207;-76
2022/11/25 00:22:32;;;;;;;2.65;1.25;;;;;;;5.33;91.29;62544.00;5008963;28;20454;-75
2022/11/25 00:24:59;;;;;;;1.98;1.88;;;;;;;5.30;92.22;62543.41;5007164;28;20203;-75
2022/11/25 00:27:26;;;;;;;2.67;2.47;;;;;;;5.33;93.34;62547.03;5004874;28;20433;-74
2022/11/25 00:29:53;;;;;;;2.22;2.05;;;;;;;5.32;94.03;62545.47;5005618;28;20246;-73
2022/11/25 00:32:20;;;;;;;2.40;2.22;;;;;;;5.26;94.79;62539.81;5006787;28;20200;-74
2022/11/25 00:34:48;;;;;;;3.15;2.60;;;;;;;5.29;96.38;62542.38;5006858;28;20202;-74
2022/11/25 00:37:15;;;;;;;2.63;2.33;;;;;;;5.33;96.48;62544.00;5001664;28;20485;-76
2022/11/25 00:39:42;;;;;;;2.67;2.58;;;;;;;5.32;97.04;62546.00;5006039;28;20201;-77
2022/11/25 00:44:54;;;;;;;2.65;2.50;;;;;;;5.15;99.09;62531.00;5007738;28;20218;-79
2022/11/25 00:47:21;;;;;;;4.78;2.50;;;;;;;5.22;99.13;62537.72;5004838;28;20207;-77
2022/11/25 00:49:52;;;;;;;2.50;2.35;;;;;;;5.20;98.08;62538.69;5006521;28;20231;-75
2022/11/25 00:52:20;;;;;;;2.83;1.92;;;;;;;5.14;97.69;62532.00;5006971;28;20203;-75
2022/11/25 00:54:48;;;;;;;3.03;2.17;;;;;;;5.20;97.34;62533.13;5003747;28;20246;-77
2022/11/25 00:57:16;;;;;;;2.15;2.05;;;;;;;5.28;97.91;62544.41;4991834;28;20493;-75
2022/11/25 00:59:44;;;;;;;4.00;1.75;;;;;;;5.27;96.81;62545.38;5007992;28;20222;-78
2022/11/25 01:02:15;;;;;;;2.92;2.65;;;;;;;5.23;96.91;62541.28;5008012;28;20306;-75
2022/11/25 01:04:43;;;;;;;2.25;2.15;;;;;;;5.18;97.98;62531.06;5004982;28;20254;-76
2022/11/25 01:07:11;;;;;;;2.17;2.08;;;;;;;5.21;97.76;62534.16;5004422;28;20227;-76
2022/11/25 01:09:38;;;;;;;2.70;2.50;;;;;;;5.20;97.85;62533.63;4998355;28;20199;-75
2022/11/25 01:12:06;;;;;;;3.42;2.35;;;;;;;5.20;98.00;62535.63;5005023;28;20329;-76
2022/11/25 01:14:34;;;;;;;2.50;2.40;;;;;;;5.16;97.52;62529.50;4994992;28;20199;-76
2022/11/25 01:17:01;;;;;;;3.05;2.63;;;;;;;5.24;97.62;62537.25;5005285;28;20226;-78
2022/11/25 01:19:28;;;;;;;2.05;1.85;;;;;;;5.24;96.46;62537.25;5006813;28;20375;-76
2022/11/25 01:21:55;;;;;;;1.80;1.77;;;;;;;5.27;96.02;62543.38;5006158;28;20258;-78
2022/11/25 01:24:25;;;;;;;1.92;1.83;;;;;;;5.27;95.85;62542.84;4994778;28;20199;-75
2022/11/25 01:26:55;;;;;;;3.40;2.00;;;;;;;5.30;94.42;62541.41;5006148;28;20223;-75
2022/11/25 01:29:22;;;;;;;2.00;1.90;;;;;;;5.34;94.07;62555.63;5008406;28;20194;-78
2022/11/25 01:31:49;;;;;;;1.65;1.65;;;;;;;5.34;93.31;62548.06;4999845;28;20267;-75
2022/11/25 01:34:18;;;;;;;1.67;1.45;;;;;;;5.32;92.94;62548.00;4986232;28;20345;-76
2022/11/25 01:36:47;;;;;;;1.70;1.60;;;;;;;5.46;90.15;62562.94;5004267;28;20223;-78
2022/11/25 01:39:19;;;;;;;1.98;1.77;;;;;;;5.52;88.15;62566.59;5006057;28;20234;-78
2022/11/25 01:41:48;;;;;;;1.77;1.67;;;;;;;5.57;87.15;62573.78;4994145;28;20235;-75
2022/11/25 01:44:17;;;;;;;1.15;1.15;;;;;;;5.57;86.18;62574.28;4995684;28;20257;-76
2022/11/25 01:46:58;;;;;;;1.45;1.30;;;;;;;5.60;84.94;62577.38;5005201;28;20227;-76
2022/11/25 01:49:30;;;;;;;1.73;1.63;;;;;;;5.69;83.01;62581.56;5002448;28;20459;-77
2022/11/25 01:52:02;;;;;;;1.45;1.45;;;;;;;5.64;82.89;62581.47;4986467;28;20219;-75
2022/11/25 01:54:34;;;;;;;1.70;1.67;;;;;;;5.71;81.88;62588.19;4990490;28;20199;-76
2022/11/25 01:57:08;;;;;;;1.80;1.70;;;;;;;5.76;80.95;62591.31;5006338;28;20226;-75
2022/11/25 01:59:39;;;;;;;1.73;1.63;;;;;;;5.83;80.09;62598.56;4993944;28;20200;-76
2022/11/25 02:02:06;;;;;;;1.25;1.25;;;;;;;5.81;78.18;62598.50;4986255;28;20236;-75
2022/11/25 02:04:38;;;;;;;2.17;1.77;;;;;;;5.83;79.22;62598.06;4986812;28;20200;-75
2022/11/25 02:07:11;;;;;;;1.25;1.25;;;;;;;5.78;78.27;62595.91;5003871;28;20226;-76
2022/11/25 02:09:41;;;;;;;1.80;1.23;;;;;;;5.73;78.94;62593.28;5003680;28;20222;-76
2022/11/25 02:12:10;;;;;;;2.22;1.52;;;;;;;5.76;79.06;62593.84;5006788;28;20376;-78
2022/11/25 02:14:38;;;;;;;1.10;1.10;;;;;;;5.73;80.73;62593.28;5004398;28;20199;-76
2022/11/25 02:17:05;;;;;;;1.00;1.00;;;;;;;5.72;81.22;62584.16;5006690;28;20219;-76
2022/11/25 02:19:43;;;;;;;1.92;1.83;;;;;;;5.75;81.28;62592.81;5005461;28;20195;-76
2022/11/25 02:22:15;;;;;;;4.22;1.63;;;;;;;5.85;82.24;62602.63;5005665;28;20306;-75
2022/11/25 02:24:45;;;;;;;1.83;1.55;;;;;;;5.79;80.52;62594.44;5004325;28;20196;-75
2022/11/25 02:27:14;;;;;;;2.97;1.13;;;;;;;5.84;78.66;62597.06;4992680;28;20204;-75
2022/11/25 02:29:42;;;;;;;1.48;1.45;;;;;;;5.77;80.30;62597.41;4986884;28;20520;-76
2022/11/25 02:32:09;;;;;;;1.27;1.23;;;;;;;5.62;78.09;62579.44;4984499;28;20388;-75
2022/11/25 02:34:36;;;;;;;1.05;1.05;;;;;;;5.66;78.13;62583.03;4993560;28;20238;-76
2022/11/25 02:37:03;;;;;;;1.40;1.40;;;;;;;5.56;78.09;62570.72;4985426;28;20223;-76
2022/11/25 02:39:30;;;;;;;1.23;1.23;;;;;;;5.74;79.01;62593.81;4985028;28;20200;-73
2022/11/25 02:42:00;;;;;;;2.05;1.65;;;;;;;5.70;80.44;62587.66;5002863;28;20286;-74
2022/11/25 02:44:28;;;;;;;1.42;1.30;;;;;;;5.59;81.59;62573.81;5002594;28;20546;-72
2022/11/25 02:46:55;;;;;;;3.22;1.10;;;;;;;5.54;83.24;62565.63;5002143;28;20470;-73
2022/11/25 02:49:22;;;;;;;1.20;1.10;;;;;;;5.58;84.42;62572.78;4998270;28;20211;-76
2022/11/25 02:51:49;;;;;;;1.45;1.40;;;;;;;5.48;85.44;62559.44;4987201;28;20227;-75
2022/11/25 02:54:17;;;;;;;1.83;1.73;;;;;;;5.46;85.93;62559.91;5003701;28;20246;-74
2022/11/25 02:56:44;;;;;;;3.08;2.05;;;;;;;5.53;87.16;62567.63;5003879;28;20562;-73
2022/11/25 02:59:11;;;;;;;1.48;1.38;;;;;;;5.46;88.12;62562.44;4992301;28;20502;-76
2022/11/25 03:01:41;;;;;;;1.95;1.85;;;;;;;5.46;89.32;62559.91;4993830;28;20229;-77
2022/11/25 03:04:08;;;;;;;1.67;1.58;;;;;;;5.36;90.45;62552.66;5004159;28;20559;-76
2022/11/25 03:06:35;;;;;;;1.40;1.40;;;;;;;5.36;90.80;62552.66;5003694;28;20219;-76
2022/11/25 03:09:03;;;;;;;2.17;2.08;;;;;;;5.43;90.97;62559.88;4985599;28;20214;-74
2022/11/25 03:14:15;;;;;;;1.58;1.48;;;;;;;5.41;92.00;62552.22;5004712;28;20226;-77
2022/11/25 03:16:44;;;;;;;1.45;1.35;;;;;;;5.36;92.35;62547.59;4999445;28;20433;-77
2022/11/25 03:19:12;;;;;;;2.05;1.95;;;;;;;5.35;92.73;62549.09;5005943;28;20199;-77
2022/11/25 03:21:40;;;;;;;4.93;2.17;;;;;;;5.34;93.63;62545.00;5005019;28;20215;-77
2022/11/25 03:24:07;;;;;;;2.42;2.17;;;;;;;5.34;94.75;62547.53;5005629;28;20234;-77
2022/11/25 03:26:34;;;;;;;1.98;1.88;;;;;;;5.35;94.33;62549.09;4990496;28;20263;-79
2022/11/25 03:29:01;;;;;;;2.13;1.85;;;;;;;5.32;94.97;62550.53;4998535;28;20271;-78
2022/11/25 03:31:28;;;;;;;1.85;1.75;;;;;;;5.22;95.67;62535.19;5004394;28;20270;-76
2022/11/25 03:33:57;;;;;;;2.45;2.00;;;;;;;5.24;96.34;62537.25;5005362;28;20203;-75
2022/11/25 03:36:24;;;;;;;2.17;1.75;;;;;;;5.26;97.03;62542.34;5002960;28;20230;-76
2022/11/25 03:38:51;;;;;;;3.35;2.05;;;;;;;5.19;98.25;62530.09;5004042;28;20432;-77
2022/11/25 03:41:17;;;;;;;1.58;1.52;;;;;;;5.18;98.88;62536.09;5004781;28;20227;-78
2022/11/25 03:43:46;;;;;;;2.13;1.98;;;;;;;5.13;99.52;62520.84;5003954;28;20231;-75
2022/11/25 03:46:12;;;;;;;2.38;1.50;;;;;;;5.10;100.00;62525.88;5003652;28;20263;-78
2022/11/25 03:48:39;;;;;;;1.80;1.70;;;;;;;5.04;100.00;62519.19;5004524;28;20196;-77
2022/11/25 03:51:07;;;;;;;2.88;1.80;;;;;;;4.98;100.00;62510.47;5004835;28;20226;-75
2022/11/25 03:53:35;;;;;;;1.30;1.30;;;;;;;4.98;100.00;62515.50;4990822;28;20200;-78
2022/11/25 03:56:01;;;;;;;1.50;1.40;;;;;;;4.96;100.00;62510.94;4994658;28;20226;-76
2022/11/25 03:58:28;;;;;;;1.85;1.75;;;;;;;4.95;100.00;62505.38;5001569;28;20203;-76
2022/11/25 04:00:59;;;;;;;1.33;1.33;;;;;;;4.86;100.00;62503.69;5003682;28;20257;-74
2022/11/25 04:03:26;;;;;;;1.48;1.42;;;;;;;4.92;99.83;62507.31;4984791;28;20243;-75
2022/11/25 04:05:52;;;;;;;1.48;1.48;;;;;;;4.88;98.98;62505.75;4998293;28;20249;-76
2022/11/25 04:08:21;;;;;;;1.35;1.25;;;;;;;4.83;99.21;62503.13;5004084;28;20203;-75
2022/11/25 04:10:49;;;;;;;1.67;1.52;;;;;;;4.83;98.55;62502.59;4995939;28;20274;-74
2022/11/25 04:13:15;;;;;;;1.65;1.25;;;;;;;4.86;99.02;62503.16;5001499;28;20203;-75
2022/11/25 04:15:45;;;;;;;1.65;1.55;;;;;;;4.88;99.10;62498.16;5001904;28;20254;-76
2022/11/25 04:18:12;;;;;;;2.97;1.95;;;;;;;4.75;99.70;62487.31;5003542;28;20199;-75
2022/11/25 04:20:39;;;;;;;1.40;1.30;;;;;;;4.73;100.00;62485.75;5002412;28;20227;-77
2022/11/25 04:23:06;;;;;;;1.42;1.30;;;;;;;4.73;100.00;62487.75;5002749;28;20287;-75
2022/11/25 04:25:35;;;;;;;1.90;1.77;;;;;;;4.74;99.32;62486.28;5002273;28;20246;-75
2022/11/25 04:28:02;;;;;;;1.60;1.50;;;;;;;4.74;98.59;62488.81;5001849;28;20250;-74
2022/11/25 04:30:30;;;;;;;2.85;1.10;;;;;;;4.80;97.79;62492.44;4988355;28;20216;-74
2022/11/25 04:32:57;;;;;;;1.15;1.15;;;;;;;4.83;98.50;62500.06;5003856;28;20322;-75
2022/11/25 04:35:26;;;;;;;1.70;1.60;;;;;;;4.69;99.43;62483.66;5006614;28;20219;-75
2022/11/25 04:37:53;;;;;;;1.88;1.77;;;;;;;4.67;98.81;62476.56;5004806;28;20207;-77
2022/11/25 04:40:20;;;;;;;1.17;1.17;;;;;;;4.69;98.38;62481.63;5005542;28;20250;-76
2022/11/25 04:42:49;;;;;;;1.27;1.27;;;;;;;4.64;98.10;62476.50;5015328;28;20231;-78
2022/11/25 04:45:18;;;;;;;2.17;1.17;;;;;;;4.54;97.67;62468.72;5019617;28;20274;-76
2022/11/25 04:47:46;;;;;;;1.90;1.60;;;;;;;4.59;96.58;62471.34;5016934;28;20196;-76
2022/11/25 04:50:17;;;;;;;1.70;1.63;;;;;;;4.65;96.13;62471.97;5018450;28;20231;-77
2022/11/25 04:52:45;;;;;;;1.85;1.27;;;;;;;4.62;96.28;62479.47;5020072;28;20194;-76
2022/11/25 04:55:12;;;;;;;1.40;1.30;;;;;;;4.74;96.89;62486.78;5019103;28;20219;-75
2022/11/25 04:57:40;;;;;;;2.58;1.33;;;;;;;4.75;96.86;62487.31;5031208;28;20219;-75
2022/11/25 05:00:10;;;;;;;2.95;1.50;;;;;;;4.80;97.00;62492.44;5016949;28;20196;-75
2022/11/25 05:02:36;;;;;;;1.42;1.42;;;;;;;4.74;96.91;62486.28;5016351;28;20270;-78
2022/11/25 05:05:04;;;;;;;0.95;0.95;;;;;;;4.68;95.62;62478.09;4997071;28;20200;-76
2022/11/25 05:07:31;;;;;;;1.00;1.00;;;;;;;4.77;94.41;62491.38;4987534;28;20220;-76
2022/11/25 05:09:58;;;;;;;2.05;1.70;;;;;;;4.72;95.36;62484.22;5006268;28;20245;-75
2022/11/25 05:12:27;;;;;;;1.45;1.40;;;;;;;4.78;95.10;62490.38;5006447;28;20229;-75
2022/11/25 05:14:55;;;;;;;1.77;1.67;;;;;;;4.79;93.55;62491.44;4997199;28;20199;-75
2022/11/25 05:17:25;;;;;;;1.70;1.60;;;;;;;4.83;92.42;62500.06;5005814;28;20211;-75
2022/11/25 05:19:53;;;;;;;1.67;1.58;;;;;;;4.72;91.50;62484.75;5007060;28;20226;-76
2022/11/25 05:22:22;;;;;;;1.35;1.30;;;;;;;4.91;90.22;62503.25;4998752;28;20203;-76
2022/11/25 05:24:50;;;;;;;1.58;1.50;;;;;;;4.86;90.10;62496.09;4987650;28;20200;-77
2022/11/25 05:27:19;;;;;;;1.27;1.23;;;;;;;4.87;89.29;62499.66;4987199;28;20228;-76
2022/11/25 05:29:46;;;;;;;1.27;1.20;;;;;;;4.94;88.98;62509.38;4987018;28;20204;-77
2022/11/25 05:32:13;;;;;;;1.20;1.20;;;;;;;4.90;88.62;62505.25;4995224;28;20231;-76
2022/11/25 05:34:41;;;;;;;1.00;1.00;;;;;;;4.96;88.34;62506.41;4993413;28;20395;-75
2022/11/25 05:37:09;;;;;;;1.35;1.25;;;;;;;4.91;87.40;62506.31;5006453;28;20219;-74
2022/11/25 05:39:36;;;;;;;1.58;1.52;;;;;;;5.01;87.21;62511.03;5005819;28;20221;-75
2022/11/25 05:42:05;;;;;;;1.10;1.10;;;;;;;5.11;86.68;62524.38;4990387;28;20224;-77
2022/11/25 05:44:32;;;;;;;1.00;1.00;;;;;;;5.07;87.46;62517.72;4994778;28;20231;-80
2022/11/25 05:46:59;;;;;;;1.35;1.35;;;;;;;5.20;86.68;62536.16;5005262;28;20266;-78
2022/11/25 05:49:26;;;;;;;2.13;1.25;;;;;;;5.14;86.70;62530.00;5004577;28;20367;-77
2022/11/25 05:51:54;;;;;;;1.55;1.45;;;;;;;5.22;86.31;62540.22;4986185;28;20295;-77
2022/11/25 05:54:21;;;;;;;3.63;1.10;;;;;;;5.16;87.58;62534.56;4992053;28;20208;-77
2022/11/25 05:56:48;;;;;;;1.35;1.35;;;;;;;5.23;87.38;62536.22;5005748;28;20246;-75
2022/11/25 05:59:15;;;;;;;0.90;0.90;;;;;;;5.17;87.04;62532.56;5005579;28;20203;-75
2022/11/25 06:01:42;;;;;;;1.17;1.17;;;;;;;5.26;86.76;62542.34;5005230;28;20211;-77
2022/11/25 06:04:10;;;;;;;1.77;1.50;;;;;;;5.24;85.87;62537.25;5005795;28;20261;-76
2022/11/25 06:06:37;;;;;;;1.25;1.23;;;;;;;5.28;85.00;62539.34;5001778;28;20234;-76
2022/11/25 06:09:05;;;;;;;1.38;1.38;;;;;;;5.35;83.91;62553.63;5003544;28;20207;-77
2022/11/25 06:11:32;;;;;;;1.45;1.40;;;;;;;5.46;84.21;62559.91;5005247;28;20447;-77
2022/11/25 06:14:01;;;;;;;1.17;1.17;;;;;;;5.45;83.88;62563.94;5005951;28;20187;-75
2022/11/25 06:16:28;;;;;;;2.03;1.40;;;;;;;5.53;84.40;62564.59;5007611;28;20237;-77
2022/11/25 06:18:55;;;;;;;1.42;1.40;;;;;;;5.47;84.19;62561.44;4988965;28;20199;-79
2022/11/25 06:21:22;;;;;;;1.50;1.50;;;;;;;5.48;84.87;62561.97;4990863;28;20271;-80
2022/11/25 06:23:49;;;;;;;1.42;1.38;;;;;;;5.51;84.02;62565.56;4989666;28;20239;-82
2022/11/25 06:26:19;;;;;;;1.73;1.63;;;;;;;5.56;82.89;62570.19;4990515;28;20223;-81
2022/11/25 06:28:46;;;;;;;1.58;1.48;;;;;;;5.71;81.99;62591.22;4989009;28;20215;-79
2022/11/25 06:31:15;;;;;;;1.40;1.30;;;;;;;5.61;80.73;62578.41;4990420;28;20220;-79
2022/11/25 06:33:42;;;;;;;2.33;1.73;;;;;;;5.74;80.51;62588.75;4988190;28;20206;-78
2022/11/25 06:36:12;;;;;;;2.17;1.95;;;;;;;5.64;79.97;62578.97;4998647;28;20242;-79
2022/11/25 06:38:39;;;;;;;1.65;1.55;;;;;;;5.67;79.92;62581.53;5005952;28;20395;-79
2022/11/25 06:41:06;;;;;;;1.13;1.13;;;;;;;5.68;79.53;62582.56;5005773;28;20219;-78
2022/11/25 06:43:34;;;;;;;3.47;1.27;;;;;;;5.73;77.68;62588.22;5005696;28;20234;-77
2022/11/25 06:46:03;;;;;;;1.38;1.27;;;;;;;5.75;76.39;62587.78;5005236;28;20223;-77
2022/11/25 06:48:30;;;;;;;1.75;1.65;;;;;;;5.78;76.71;62593.38;5005944;28;20196;-79
2022/11/25 06:50:58;;;;;;;1.83;1.73;;;;;;;5.77;77.02;62592.38;5006409;28;20330;-79
2022/11/25 06:53:25;;;;;;;1.60;1.60;;;;;;;5.81;78.66;62596.50;5000079;28;20207;-80
2022/11/25 06:56:03;;;;;;;1.40;1.40;;;;;;;5.82;78.10;62600.06;4986038;28;20220;-78
2022/11/25 06:58:30;;;;;;;1.30;1.20;;;;;;;5.84;78.59;62601.59;4986877;28;20210;-78
2022/11/25 07:01:02;;;;;;;1.90;1.80;;;;;;;5.95;79.43;62609.91;4986558;28;20267;-77
2022/11/25 07:03:30;;;;;;;1.90;1.80;;;;;;;5.85;80.04;62600.09;4998969;28;20223;-81
2022/11/25 07:05:57;;;;;;;1.67;1.60;;;;;;;6.00;79.38;62620.09;5007192;28;20219;-80
2022/11/25 07:08:25;;;;;;;1.75;1.60;;;;;;;5.87;78.95;62601.66;5008101;28;20199;-78
2022/11/25 07:10:52;;;;;;;1.73;1.70;;;;;;;5.89;79.46;62606.75;5006260;28;20221;-82
2022/11/25 07:13:19;;;;;;;1.20;1.20;;;;;;;5.81;78.71;62601.53;5007221;28;20261;-79
2022/11/25 07:15:46;;;;;;;1.52;1.45;;;;;;;5.79;79.57;62598.97;5006808;28;20219;-79
2022/11/25 07:18:14;;;;;;;1.02;1.02;;;;;;;5.88;79.06;62605.72;5007990;28;20262;-80
2022/11/25 07:20:41;;;;;;;1.20;1.20;;;;;;;5.90;77.89;62602.22;5006542;28;20223;-79
2022/11/25 07:23:08;;;;;;;1.63;1.52;;;;;;;5.91;77.90;62605.78;5007096;28;20254;-81
2022/11/25 07:25:35;;;;;;;1.88;1.73;;;;;;;5.95;78.29;62615.47;5006760;28;20215;-78
2022/11/25 07:28:02;;;;;;;3.28;2.90;;;;;;;5.91;79.23;62608.81;5007509;28;20199;-82
2022/11/25 07:30:29;;;;;;;2.30;2.20;;;;;;;5.97;79.64;62609.94;5006197;28;20223;-78
2022/11/25 07:32:56;;;;;;;1.88;1.77;;;;;;;5.88;79.90;62608.75;5005522;28;20488;-79
2022/11/25 07:35:24;;;;;;;2.13;2.03;;;;;;;5.80;80.25;62595.44;5006638;28;20500;-80
2022/11/25 07:37:53;;;;;;;2.33;2.22;;;;;;;5.86;79.18;62603.66;5005864;28;20251;-79
2022/11/25 07:40:20;;;;;;;1.77;1.67;;;;;;;5.74;79.83;62589.28;5008187;28;20227;-79
2022/11/25 07:42:46;;;;;;;3.55;2.50;;;;;;;5.77;80.45;62597.41;5008081;28;20555;-78
2022/11/25 07:45:13;;;;;;;2.35;2.20;;;;;;;5.72;81.10;62589.22;5008258;28;20239;-80
2022/11/25 07:47:40;;;;;;;2.95;2.45;;;;;;;5.83;80.92;62601.09;5003378;28;20199;-80
2022/11/25 07:50:09;;;;;;;3.85;3.58;;;;;;;5.87;81.02;62601.66;4987573;28;20231;-80
2022/11/25 07:52:39;;;;;;;3.10;2.78;;;;;;;5.92;80.07;62611.88;4986874;28;20215;-81
2022/11/25 07:55:07;;;;;;;3.00;2.67;;;;;;;6.03;80.25;62618.66;4986992;28;20219;-79
2022/11/25 07:57:34;;;;;;;2.00;1.90;;;;;;;5.94;78.74;62611.41;4995702;28;20242;-80
2022/11/25 08:00:01;;;;;;;2.35;2.22;;;;;;;5.98;79.50;62613.50;5005459;28;20214;-80
2022/11/25 08:02:28;;;;;;;1.80;1.80;;;;;;;6.07;78.50;62622.78;4987518;28;20227;-81
2022/11/25 08:04:55;;;;;;;2.00;1.90;;;;;;;6.18;78.42;62636.13;5006012;28;20265;-80
2022/11/25 08:07:22;;;;;;;2.00;1.88;;;;;;;6.13;78.10;62636.03;5007252;28;20199;-81
2022/11/25 08:09:51;;;;;;;1.83;1.73;;;;;;;6.19;78.97;62632.09;5010731;28;20389;-80
2022/11/25 08:12:18;;;;;;;2.72;2.17;;;;;;;6.27;79.44;62642.88;5009875;28;20228;-81
2022/11/25 08:14:45;;;;;;;2.78;2.58;;;;;;;6.19;78.99;62637.69;5011255;28;20206;-81
2022/11/25 08:17:13;;;;;;;3.95;2.10;;;;;;;6.25;79.37;62643.84;5018166;28;20195;-79
2022/11/25 08:19:40;;;;;;;2.30;2.20;;;;;;;6.20;78.82;62636.19;5032018;28;20203;-82
2022/11/25 08:22:07;;;;;;;2.42;1.75;;;;;;;6.39;77.99;62657.78;4996599;28;20247;-80
2022/11/25 08:24:34;;;;;;;3.53;2.30;;;;;;;6.46;77.79;62667.53;4990006;28;20552;-82
2022/11/25 08:27:05;;;;;;;2.38;2.28;;;;;;;6.53;78.56;62667.16;4991397;28;20397;-80
2022/11/25 08:29:31;;;;;;;2.00;1.90;;;;;;;6.47;77.94;62666.03;4989647;28;20216;-78
2022/11/25 08:31:59;;;;;;;3.33;3.03;;;;;;;6.72;76.56;62687.28;5008352;28;20222;-78
2022/11/25 08:34:26;;;;;;;2.65;2.03;;;;;;;6.66;76.62;62686.13;5007806;28;20206;-81
2022/11/25 08:36:53;;;;;;;2.08;1.98;;;;;;;6.60;77.06;62679.97;4996897;28;20228;-79
2022/11/25 08:39:21;;;;;;;2.53;2.40;;;;;;;6.78;76.09;62695.47;5010784;28;20203;-79
2022/11/25 08:41:48;;;;;;;2.33;2.20;;;;;;;6.52;77.57;62669.16;5010668;28;20285;-79
2022/11/25 08:44:16;;;;;;;1.98;1.88;;;;;;;6.75;77.52;62694.91;5005918;28;20231;-78
2022/11/25 08:46:43;;;;;;;2.10;2.00;;;;;;;6.70;77.55;62690.25;5008650;28;20215;-78
2022/11/25 08:49:11;;;;;;;2.67;2.47;;;;;;;6.65;79.14;62682.06;5008738;28;20270;-78
2022/11/25 08:51:39;;;;;;;2.40;2.20;;;;;;;6.81;77.63;62698.56;5008774;28;20223;-79
2022/11/25 08:54:07;;;;;;;2.97;2.38;;;;;;;6.79;76.91;62697.03;4999950;28;20489;-79
2022/11/25 08:56:35;;;;;;;2.22;2.13;;;;;;;6.82;76.68;62699.59;4990093;28;20564;-78
2022/11/25 08:59:04;;;;;;;2.20;2.10;;;;;;;6.97;76.30;62720.66;4997883;28;20403;-80
2022/11/25 09:01:32;;;;;;;2.63;1.85;;;;;;;7.06;75.25;62724.34;5008428;28;20223;-78
2022/11/25 09:03:59;;;;;;;2.53;2.40;;;;;;;6.86;76.95;62706.78;5003273;28;20249;-78
2022/11/25 09:06:30;;;;;;;2.92;2.45;;;;;;;6.47;79.89;62668.56;5007328;28;20227;-78
2022/11/25 09:09:00;;;;;;;2.60;2.47;;;;;;;6.70;78.96;62685.22;5007299;28;20223;-78
2022/11/25 09:11:28;;;;;;;2.13;2.00;;;;;;;6.50;79.29;62669.13;5008020;28;20262;-77
2022/11/25 09:13:55;;;;;;;3.30;2.53;;;;;;;6.69;78.64;62686.19;5009827;28;20226;-78
2022/11/25 09:16:21;;;;;;;3.08;2.88;;;;;;;6.94;77.16;62712.50;5007959;28;20230;-79
2022/11/25 09:18:50;;;;;;;2.70;2.60;;;;;;;7.20;76.87;62738.28;4987840;28;20211;-79
2022/11/25 09:21:17;;;;;;;2.80;2.60;;;;;;;7.28;75.39;62747.06;4988942;28;20275;-78
2022/11/25 09:23:45;;;;;;;2.38;2.28;;;;;;;7.18;74.96;62738.75;4989905;28;20299;-78
2022/11/25 09:26:23;;;;;;;2.65;2.50;;;;;;;6.96;77.22;62717.09;4996227;28;20570;-78
2022/11/25 09:28:51;;;;;;;2.40;2.30;;;;;;;7.00;77.83;62720.69;5008205;28;20500;-79
2022/11/25 09:31:18;;;;;;;2.95;2.75;;;;;;;7.10;76.86;62730.50;5001761;28;20332;-80
2022/11/25 09:33:45;;;;;;;3.38;2.72;;;;;;;7.08;76.78;62728.94;4989200;28;20481;-78
2022/11/25 09:36:15;;;;;;;2.60;2.40;;;;;;;7.25;76.59;62741.41;4990466;28;20287;-80
2022/11/25 09:38:46;;;;;;;2.40;2.20;;;;;;;7.33;74.68;62751.69;4990144;28;20200;-79
2022/11/25 09:47:06;;;;;;;2.83;2.60;;;;;;;7.16;77.20;62734.16;4997830;28;20416;-79
2022/11/25 09:49:48;;;;;;;3.85;3.55;;;;;;;7.38;77.15;62761.94;5008241;28;20227;-79
2022/11/25 09:52:27;;;;;;;4.57;3.53;;;;;;;7.49;75.98;62768.72;5010483;28;20212;-77
2022/11/25 09:55:05;;;;;;;2.83;2.72;;;;;;;7.31;76.54;62750.16;5008850;28;20221;-79
2022/11/25 09:57:56;;;;;;;2.85;2.55;;;;;;;7.22;75.43;62747.94;4988499;28;20295;-78
2022/11/25 10:00:23;;;;;;;3.28;3.08;;;;;;;7.82;74.01;62805.31;4988288;28;20223;-77
2022/11/25 10:03:01;;;;;;;2.88;2.67;;;;;;;7.96;73.61;62817.25;4988080;28;20203;-77
2022/11/25 10:05:36;;;;;;;2.45;2.30;;;;;;;8.04;69.69;62830.56;4989010;28;20487;-78
2022/11/25 10:08:13;;;;;;;3.72;2.55;;;;;;;8.02;71.33;62825.47;4989577;28;20378;-79
2022/11/25 10:10:46;;;;;;;2.53;2.35;;;;;;;8.07;71.12;62833.16;4990765;28;20216;-77
2022/11/25 10:13:20;;;;;;;2.17;2.08;;;;;;;8.24;70.11;62850.22;4990947;28;20200;-77
2022/11/25 10:16:21;;;;;;;2.33;2.22;;;;;;;8.03;70.17;62826.50;5003030;28;20227;-79
2022/11/25 10:18:56;;;;;;;5.43;2.35;;;;;;;8.12;69.46;62838.84;4998084;28;20211;-77
2022/11/25 10:21:23;;;;;;;2.17;2.08;;;;;;;8.33;68.63;62854.44;5009514;28;20219;-78
2022/11/25 10:23:51;;;;;;;1.73;1.65;;;;;;;8.18;67.16;62839.44;5006740;28;20254;-78
2022/11/25 10:26:29;;;;;;;2.20;2.10;;;;;;;8.43;68.36;62864.78;5007279;28;20341;-78
2022/11/25 10:29:06;;;;;;;4.30;2.15;;;;;;;8.26;67.09;62847.72;4989711;28;20200;-78
2022/11/25 10:31:36;;;;;;;1.88;1.77;;;;;;;7.83;68.98;62803.84;4988198;28;20235;-78
2022/11/25 10:34:12;;;;;;;1.73;1.63;;;;;;;7.85;70.15;62805.88;4988603;28;20247;-76
2022/11/25 10:36:42;;;;;;;2.17;2.05;;;;;;;7.84;70.51;62804.84;4991073;28;20387;-78
2022/11/25 10:39:14;;;;;;;1.98;1.83;;;;;;;7.85;69.24;62803.34;5006200;28;20214;-78
2022/11/25 10:41:48;;;;;;;1.67;1.65;;;;;;;7.89;68.48;62812.56;5007254;28;20207;-78
2022/11/25 10:44:24;;;;;;;2.28;2.17;;;;;;;7.93;70.14;62813.63;5006663;28;20231;-79
2022/11/25 10:47:04;;;;;;;2.25;1.85;;;;;;;7.83;71.87;62805.84;5007420;28;20223;-79
2022/11/25 10:49:38;;;;;;;1.77;1.65;;;;;;;7.47;70.67;62771.22;4996434;28;20199;-78
2022/11/25 10:52:11;;;;;;;1.85;1.75;;;;;;;7.58;71.27;62782.56;5001525;28;20223;-79
2022/11/25 10:54:40;;;;;;;6.22;1.88;;;;;;;7.68;71.15;62787.84;4995217;28;20203;-78
2022/11/25 10:57:18;;;;;;;3.13;1.83;;;;;;;7.59;68.71;62778.53;4988068;28;20286;-78
2022/11/25 10:59:55;;;;;;;1.05;1.05;;;;;;;7.52;68.05;62768.78;4996027;28;20493;-79
2022/11/25 11:02:30;;;;;;;1.88;1.77;;;;;;;7.65;69.35;62787.25;4993072;28;20262;-79
2022/11/25 11:05:00;;;;;;;1.30;1.25;;;;;;;7.85;66.79;62805.38;4994277;28;20227;-79
2022/11/25 11:07:29;;;;;;;1.73;1.63;;;;;;;8.07;66.53;62831.16;4990748;28;20195;-79
2022/11/25 11:10:16;;;;;;;1.60;1.50;;;;;;;8.32;65.21;62853.91;4986337;28;20192;-79
2022/11/25 11:12:55;;;;;;;2.05;1.83;;;;;;;8.40;65.17;62862.19;4992187;28;20216;-78
2022/11/25 11:15:25;;;;;;;2.20;2.03;;;;;;;8.50;64.60;62877.06;4995383;28;20279;-78
2022/11/25 11:17:53;;;;;;;1.90;1.80;;;;;;;7.94;66.44;62817.19;5000823;28;20243;-78
2022/11/25 11:20:23;;;;;;;2.85;2.30;;;;;;;7.96;68.79;62819.78;5001416;28;20277;-79
2022/11/25 11:23:01;;;;;;;4.30;2.50;;;;;;;8.17;70.04;62838.41;4997974;28;20497;-78
2022/11/25 11:25:34;;;;;;;2.10;2.03;;;;;;;7.70;70.94;62789.88;4991014;28;20231;-79
2022/11/25 11:28:03;;;;;;;2.45;2.25;;;;;;;7.72;73.64;62791.94;4989957;28;20449;-78
2022/11/25 11:30:31;;;;;;;4.75;2.67;;;;;;;7.84;72.81;62809.94;4992265;28;20219;-78
2022/11/25 11:33:02;;;;;;;2.58;2.40;;;;;;;7.67;73.39;62789.31;4992216;28;20473;-77
2022/11/25 11:35:43;;;;;;;1.80;1.70;;;;;;;7.59;72.54;62773.97;4992606;28;20582;-79
2022/11/25 11:38:29;;;;;;;3.50;2.38;;;;;;;7.47;73.15;62771.72;4995009;28;20203;-77
2022/11/25 11:41:06;;;;;;;1.48;1.38;;;;;;;7.11;75.67;62729.50;4991653;28;20255;-78
2022/11/25 11:43:53;;;;;;;2.20;2.10;;;;;;;7.07;75.10;62727.94;4986508;28;20461;-77
2022/11/25 11:46:31;;;;;;;5.30;3.53;;;;;;;7.47;74.59;62766.16;5000952;28;20235;-77
2022/11/25 11:49:12;;;;;;;2.58;2.38;;;;;;;7.48;73.97;62772.75;4994013;28;20500;-79
2022/11/25 11:51:47;;;;;;;2.85;2.65;;;;;;;7.53;75.16;62775.38;4985886;28;20555;-79
2022/11/25 11:54:22;;;;;;;2.42;2.20;;;;;;;7.47;74.75;62768.69;4996258;28;20435;-78
2022/11/25 11:56:56;;;;;;;2.28;2.17;;;;;;;7.50;74.90;62774.84;4994060;28;20247;-78
2022/11/25 11:59:49;;;;;;;3.00;2.63;;;;;;;7.38;76.80;62759.91;5006825;28;20218;-79
2022/11/25 12:02:24;;;;;;;2.47;2.10;;;;;;;7.24;76.56;62745.47;5005477;28;20195;-77